createdAt,value
2023-04-04T00:01:56.107Z,4.97
2023-04-04T00:04:17.824Z,5.40
2023-04-04T00:06:44.458Z,3.27
2023-04-04T00:09:06.613Z,4.00
2023-04-04T00:11:28.298Z,5.33
2023-04-04T00:13:50.043Z,5.27
2023-04-04T00:16:11.772Z,5.30
2023-04-04T00:18:33.542Z,7.67
2023-04-04T00:20:55.506Z,6.03
2023-04-04T00:23:17.723Z,5.90
2023-04-04T00:25:39.646Z,6.00
2023-04-04T00:28:01.592Z,5.23
2023-04-04T00:30:23.316Z,4.17
2023-04-04T00:32:45.575Z,6.03
2023-04-04T00:35:08.548Z,5.10
2023-04-04T00:37:30.354Z,6.27
2023-04-04T00:39:52.439Z,5.30
2023-04-04T00:42:15.099Z,4.87
2023-04-04T00:44:36.881Z,5.70
2023-04-04T00:47:00.772Z,5.43
2023-04-04T00:49:22.672Z,6.83
2023-04-04T00:51:44.885Z,5.20
2023-04-04T00:54:06.933Z,4.67
2023-04-04T00:56:30.738Z,4.27
2023-04-04T00:58:52.517Z,6.13
2023-04-04T01:01:14.598Z,5.77
2023-04-04T01:03:39.697Z,7.43
2023-04-04T01:06:02.651Z,4.37
2023-04-04T01:08:28.160Z,4.60
2023-04-04T01:10:50.715Z,5.20
2023-04-04T01:13:12.676Z,3.50
2023-04-04T01:15:35.363Z,4.77
2023-04-04T01:18:02.250Z,6.33
2023-04-04T01:20:29.487Z,3.23
2023-04-04T01:22:55.701Z,5.73
2023-04-04T01:25:19.561Z,4.70
2023-04-04T01:27:47.603Z,4.53
2023-04-04T01:30:15.680Z,6.25
2023-04-04T01:32:51.468Z,4.33
2023-04-04T01:35:38.764Z,4.93
2023-04-04T01:38:22.237Z,5.07
2023-04-04T01:40:52.442Z,6.40
2023-04-04T01:43:15.719Z,4.70
2023-04-04T01:45:39.456Z,6.45
2023-04-04T01:48:04.862Z,5.87
2023-04-04T01:50:27.272Z,5.43
2023-04-04T01:52:50.030Z,4.67
2023-04-04T01:55:12.637Z,6.20
2023-04-04T01:57:34.347Z,5.37
2023-04-04T01:59:56.469Z,5.67
2023-04-04T02:02:18.159Z,4.47
2023-04-04T02:04:40.027Z,4.03
2023-04-04T02:07:01.766Z,5.23
2023-04-04T02:09:24.176Z,6.20
2023-04-04T02:11:45.989Z,5.33
2023-04-04T02:14:07.846Z,6.17
2023-04-04T02:16:29.639Z,4.40
2023-04-04T02:18:51.312Z,4.73
2023-04-04T02:21:13.026Z,6.03
2023-04-04T02:23:34.699Z,3.77
2023-04-04T02:25:57.209Z,6.67
2023-04-04T02:28:19.378Z,4.43
2023-04-04T02:30:43.074Z,5.53
2023-04-04T02:33:04.793Z,6.23
2023-04-04T02:35:26.511Z,5.17
2023-04-04T02:37:48.225Z,6.23
2023-04-04T02:40:19.495Z,5.87
2023-04-04T02:42:45.535Z,4.80
2023-04-04T02:45:08.737Z,6.67
2023-04-04T02:47:31.736Z,6.25
2023-04-04T02:49:53.960Z,6.53
2023-04-04T02:52:15.609Z,5.10
2023-04-04T02:54:40.653Z,6.73
2023-04-04T02:57:04.876Z,6.90
2023-04-04T02:59:26.773Z,4.27
2023-04-04T03:01:48.575Z,5.37
2023-04-04T03:04:11.440Z,5.27
2023-04-04T03:06:33.769Z,4.37
2023-04-04T03:08:55.587Z,6.60
2023-04-04T03:11:19.981Z,5.20
2023-04-04T03:13:42.180Z,5.97
2023-04-04T03:16:06.828Z,5.00
2023-04-04T03:18:39.564Z,4.93
2023-04-04T03:21:01.748Z,4.97
2023-04-04T03:23:23.398Z,5.63
2023-04-04T03:25:45.920Z,7.13
2023-04-04T03:28:12.549Z,6.00
2023-04-04T03:30:35.294Z,7.40
2023-04-04T03:32:57.014Z,5.20
2023-04-04T03:35:18.697Z,5.47
2023-04-04T03:37:42.849Z,10.30
2023-04-04T03:40:05.274Z,7.13
2023-04-04T03:42:27.100Z,5.60
2023-04-04T03:44:49.381Z,5.83
2023-04-04T03:47:21.342Z,5.20
2023-04-04T03:49:43.176Z,5.53
2023-04-04T03:52:05.457Z,7.07
2023-04-04T03:54:28.979Z,5.13
2023-04-04T03:56:52.295Z,5.35
2023-04-04T03:59:14.127Z,6.40
2023-04-04T04:01:36.033Z,5.97
2023-04-04T04:03:57.994Z,6.67
2023-04-04T04:06:19.810Z,6.37
2023-04-04T04:08:43.200Z,5.27
2023-04-04T04:11:06.250Z,7.50
2023-04-04T04:13:29.471Z,7.47
2023-04-04T04:15:51.246Z,6.57
2023-04-04T04:18:16.686Z,7.80
2023-04-04T04:20:38.430Z,7.20
2023-04-04T04:23:00.168Z,6.07
2023-04-04T04:25:22.232Z,6.13
2023-04-04T04:28:04.109Z,7.23
2023-04-04T04:30:26.424Z,5.93
2023-04-04T04:32:50.456Z,7.63
2023-04-04T04:35:13.935Z,7.63
2023-04-04T04:37:36.648Z,5.50
2023-04-04T04:40:01.765Z,7.93
2023-04-04T04:42:31.809Z,6.07
2023-04-04T04:44:55.960Z,11.20
2023-04-04T04:47:18.322Z,7.20
2023-04-04T04:49:42.288Z,6.13
2023-04-04T04:52:06.130Z,8.80
2023-04-04T04:54:29.091Z,6.80
2023-04-04T04:56:50.866Z,7.13
2023-04-04T04:59:12.906Z,8.87
2023-04-04T05:01:48.411Z,7.80
2023-04-04T05:04:11.181Z,6.93
2023-04-04T05:06:40.355Z,7.00
2023-04-04T05:09:06.203Z,8.53
2023-04-04T05:11:31.957Z,6.03
2023-04-04T05:13:54.430Z,7.13
2023-04-04T05:16:17.951Z,5.77
2023-04-04T05:18:42.015Z,7.75
2023-04-04T05:21:06.071Z,11.25
2023-04-04T05:23:29.068Z,10.50
2023-04-04T05:25:53.437Z,11.47
2023-04-04T05:28:16.581Z,9.47
2023-04-04T05:30:39.365Z,6.63
2023-04-04T05:33:08.430Z,10.00
2023-04-04T05:35:32.468Z,8.10
2023-04-04T05:37:54.591Z,11.70
2023-04-04T05:40:18.061Z,12.53
2023-04-04T05:42:58.211Z,8.30
2023-04-04T05:45:26.692Z,8.33
2023-04-04T05:47:49.855Z,12.63
2023-04-04T05:50:16.140Z,10.70
2023-04-04T05:52:47.163Z,8.60
2023-04-04T05:55:26.348Z,8.83
2023-04-04T05:57:53.213Z,11.20
2023-04-04T06:03:07.848Z,9.97
2023-04-04T06:05:30.367Z,10.77
2023-04-04T06:07:52.597Z,7.57
2023-04-04T06:10:14.693Z,9.90
2023-04-04T06:12:37.111Z,11.93
2023-04-04T06:15:03.788Z,7.00
2023-04-04T06:17:26.221Z,10.67
2023-04-04T06:19:48.448Z,15.80
2023-04-04T06:22:10.915Z,9.37
2023-04-04T06:24:37.740Z,13.20
2023-04-04T06:27:00.789Z,10.50
2023-04-04T06:29:24.310Z,10.03
2023-04-04T06:31:46.597Z,8.07
2023-04-04T06:34:15.566Z,10.17
2023-04-04T06:36:49.895Z,8.52
2023-04-04T06:39:12.199Z,10.07
2023-04-04T06:41:34.344Z,8.20
2023-04-04T06:43:56.379Z,9.00
2023-04-04T06:46:18.889Z,7.53
2023-04-04T06:48:40.731Z,8.07
2023-04-04T06:51:07.363Z,7.87
2023-04-04T06:53:30.174Z,9.03
2023-04-04T06:55:53.764Z,8.00
2023-04-04T06:58:16.640Z,10.40
2023-04-04T07:00:39.362Z,9.00
2023-04-04T07:03:01.490Z,7.93
2023-04-04T07:05:23.430Z,7.87
2023-04-04T07:07:47.069Z,6.67
2023-04-04T07:10:09.380Z,7.78
2023-04-04T07:12:31.908Z,13.70
2023-04-04T07:14:53.622Z,6.73
2023-04-04T07:17:24.212Z,7.53
2023-04-04T07:19:47.139Z,7.10
2023-04-04T07:22:08.905Z,7.30
2023-04-04T07:24:31.051Z,6.27
2023-04-04T07:26:52.896Z,7.53
2023-04-04T07:29:14.716Z,7.77
2023-04-04T07:31:36.457Z,5.43
2023-04-04T07:33:58.238Z,8.37
2023-04-04T07:36:20.166Z,7.33
2023-04-04T07:38:42.214Z,6.20
2023-04-04T07:41:04.472Z,6.60
2023-04-04T07:43:26.236Z,5.63
2023-04-04T07:45:47.967Z,5.97
2023-04-04T07:48:09.747Z,6.30
2023-04-04T07:50:31.671Z,7.60
2023-04-04T07:52:55.726Z,6.47
2023-04-04T07:55:18.702Z,4.75
2023-04-04T07:57:40.512Z,6.10
2023-04-04T08:00:02.476Z,7.80
2023-04-04T08:02:39.657Z,6.13
2023-04-04T08:05:01.516Z,8.87
2023-04-04T08:07:24.019Z,6.67
2023-04-04T08:09:45.719Z,5.97
2023-04-04T08:12:07.854Z,7.20
2023-04-04T08:14:29.608Z,6.83
2023-04-04T08:16:51.742Z,6.03
2023-04-04T08:19:13.792Z,7.17
2023-04-04T08:21:35.452Z,5.13
2023-04-04T08:23:57.362Z,4.33
2023-04-04T08:26:19.101Z,6.57
2023-04-04T08:28:40.839Z,4.03
2023-04-04T08:31:04.282Z,6.53
2023-04-04T08:33:37.183Z,5.13
2023-04-04T08:36:06.300Z,5.47
2023-04-04T08:38:28.113Z,5.63
2023-04-04T08:40:50.096Z,7.63
2023-04-04T08:43:14.712Z,2.73
2023-04-04T08:45:39.070Z,5.90
2023-04-04T08:48:04.958Z,5.70
2023-04-04T08:50:29.192Z,5.17
2023-04-04T08:52:53.057Z,4.18
2023-04-04T08:55:15.856Z,4.82
2023-04-04T08:57:38.409Z,3.63
2023-04-04T09:00:00.835Z,3.93
2023-04-04T09:02:46.493Z,4.23
2023-04-04T09:05:09.060Z,4.03
2023-04-04T09:07:32.068Z,4.90
2023-04-04T09:09:54.839Z,4.30
2023-04-04T09:12:17.300Z,3.50
2023-04-04T09:14:41.401Z,5.20
2023-04-04T09:17:03.604Z,3.88
2023-04-04T09:19:26.390Z,3.40
2023-04-04T09:21:49.264Z,3.60
2023-04-04T09:24:10.992Z,2.67
2023-04-04T09:26:51.599Z,4.53
2023-04-04T09:29:13.915Z,2.80
2023-04-04T09:31:35.885Z,3.53
2023-04-04T09:33:58.607Z,4.57
2023-04-04T09:36:21.034Z,4.03
2023-04-04T09:38:46.225Z,4.30
2023-04-04T09:41:11.625Z,3.97
2023-04-04T09:43:35.473Z,2.93
2023-04-04T09:45:58.246Z,6.68
2023-04-04T09:48:30.169Z,3.80
2023-04-04T09:50:51.912Z,4.23
2023-04-04T09:53:18.772Z,4.47
2023-04-04T09:55:41.146Z,6.00
2023-04-04T09:58:16.157Z,3.73
2023-04-04T10:00:46.062Z,2.90
2023-04-04T10:03:08.263Z,4.90
2023-04-04T10:05:30.937Z,7.10
2023-04-04T10:07:52.664Z,4.93
2023-04-04T10:10:15.496Z,4.50
2023-04-04T10:12:38.278Z,5.10
2023-04-04T10:15:01.893Z,4.27
2023-04-04T10:17:45.713Z,2.67
2023-04-04T10:20:11.312Z,4.70
2023-04-04T10:22:33.961Z,3.53
2023-04-04T10:24:55.805Z,3.93
2023-04-04T10:27:17.661Z,2.97
2023-04-04T10:29:39.686Z,4.60
2023-04-04T10:32:06.473Z,4.13
2023-04-04T10:35:11.661Z,4.10
2023-04-04T10:37:43.349Z,2.58
2023-04-04T10:40:10.143Z,3.67
2023-04-04T10:42:41.980Z,4.87
2023-04-04T10:45:19.915Z,4.37
2023-04-04T10:47:44.848Z,4.67
2023-04-04T10:50:10.078Z,3.50
2023-04-04T10:52:32.430Z,4.23
2023-04-04T10:54:58.866Z,4.13
2023-04-04T10:57:21.344Z,4.73
2023-04-04T11:00:10.202Z,3.60
2023-04-04T11:02:59.317Z,5.20
2023-04-04T11:05:30.546Z,3.83
2023-04-04T11:08:07.660Z,3.23
2023-04-04T11:10:35.305Z,4.37
2023-04-04T11:13:12.685Z,4.03
2023-04-04T11:16:05.320Z,3.60
2023-04-04T11:18:39.133Z,4.73
2023-04-04T11:21:06.998Z,4.30
2023-04-04T11:23:58.625Z,4.13
2023-04-04T11:26:26.648Z,4.20
2023-04-04T11:28:48.927Z,3.57
2023-04-04T11:31:20.575Z,3.53
2023-04-04T11:34:08.044Z,4.50
2023-04-04T11:36:36.074Z,3.63
2023-04-04T11:38:59.962Z,3.20
2023-04-04T11:41:22.373Z,6.03
2023-04-04T11:43:50.411Z,4.73
2023-04-04T11:46:17.736Z,5.13
2023-04-04T11:48:39.731Z,4.47
2023-04-04T11:51:03.962Z,3.53
2023-04-04T11:53:25.714Z,6.10
2023-04-04T11:55:50.387Z,4.93
2023-04-04T11:58:15.364Z,4.97
2023-04-04T12:00:39.361Z,7.53
2023-04-04T12:03:01.302Z,4.63
2023-04-04T12:05:24.375Z,4.23
2023-04-04T12:07:46.768Z,4.43
2023-04-04T12:10:09.929Z,5.43
2023-04-04T12:12:32.051Z,6.07
2023-04-04T12:15:00.260Z,4.40
2023-04-04T12:17:31.816Z,4.75
2023-04-04T12:19:53.477Z,5.73
2023-04-04T12:22:16.300Z,4.83
2023-04-04T12:24:39.075Z,3.50
2023-04-04T12:27:01.440Z,5.77
2023-04-04T12:29:26.253Z,4.37
2023-04-04T12:31:49.754Z,3.77
2023-04-04T12:34:19.283Z,6.10
2023-04-04T12:36:41.350Z,5.43
2023-04-04T12:39:09.867Z,4.23
2023-04-04T12:41:33.670Z,6.17
2023-04-04T12:44:05.632Z,6.25
2023-04-04T12:46:28.018Z,5.80
2023-04-04T12:48:50.027Z,3.90
2023-04-04T12:51:12.274Z,5.77
2023-04-04T12:53:35.309Z,6.00
2023-04-04T12:56:04.521Z,6.87
2023-04-04T12:58:26.595Z,5.93
2023-04-04T13:00:54.510Z,5.20
2023-04-04T13:03:17.781Z,4.57
2023-04-04T13:05:40.420Z,5.33
2023-04-04T13:08:10.355Z,5.50
2023-04-04T13:10:57.799Z,6.37
2023-04-04T13:13:42.994Z,5.13
2023-04-04T13:16:08.075Z,6.38
2023-04-04T13:18:42.437Z,5.33
2023-04-04T13:21:07.214Z,6.78
2023-04-04T13:23:28.934Z,6.90
2023-04-04T13:25:51.392Z,7.40
2023-04-04T13:28:13.090Z,4.53
2023-04-04T13:30:34.884Z,5.40
2023-04-04T13:32:56.556Z,4.73
2023-04-04T13:35:19.108Z,5.97
2023-04-04T13:37:40.771Z,4.83
2023-04-04T13:40:02.472Z,4.60
2023-04-04T13:42:29.993Z,5.03
2023-04-04T13:44:51.742Z,7.10
2023-04-04T13:47:13.432Z,4.90
2023-04-04T13:49:35.099Z,4.77
2023-04-04T13:51:56.809Z,4.63
2023-04-04T13:54:18.448Z,6.60
2023-04-04T13:56:40.999Z,5.47
2023-04-04T13:59:03.159Z,5.43
2023-04-04T14:01:24.988Z,4.10
2023-04-04T14:03:47.982Z,6.13
2023-04-04T14:06:11.060Z,4.47
2023-04-04T14:08:33.917Z,4.50
2023-04-04T14:10:57.027Z,4.95
2023-04-04T14:13:19.814Z,4.87
2023-04-04T14:15:41.760Z,9.03
2023-04-04T14:18:03.847Z,4.77
2023-04-04T14:20:25.683Z,4.07
2023-04-04T14:22:47.265Z,4.90
2023-04-04T14:25:09.308Z,7.53
2023-04-04T14:27:31.398Z,4.63
2023-04-04T14:29:53.080Z,6.20
2023-04-04T14:32:15.678Z,5.37
2023-04-04T14:34:38.173Z,6.60
2023-04-04T14:37:00.189Z,6.00
2023-04-04T14:39:22.203Z,4.73
2023-04-04T14:41:44.016Z,6.30
2023-04-04T14:44:06.481Z,4.93
2023-04-04T14:46:28.239Z,5.17
2023-04-04T14:48:49.934Z,5.63
2023-04-04T14:51:11.652Z,7.03
2023-04-04T14:53:33.433Z,5.53
2023-04-04T14:55:55.180Z,4.40
2023-04-04T14:58:17.746Z,4.83
2023-04-04T15:00:39.483Z,5.37
2023-04-04T15:03:01.664Z,4.77
2023-04-04T15:05:26.411Z,4.57
2023-04-04T15:07:49.993Z,6.13
2023-04-04T15:10:13.365Z,6.65
2023-04-04T15:12:35.040Z,7.47
2023-04-04T15:14:56.713Z,5.47
2023-04-04T15:17:18.409Z,7.17
2023-04-04T15:19:41.661Z,4.87
2023-04-04T15:22:03.430Z,5.13
2023-04-04T15:24:25.594Z,5.87
2023-04-04T15:26:47.258Z,5.67
2023-04-04T15:29:09.265Z,6.23
2023-04-04T15:31:32.155Z,7.17
2023-04-04T15:33:55.816Z,6.23
2023-04-04T15:36:17.725Z,5.60
2023-04-04T15:38:40.468Z,7.43
2023-04-04T15:41:02.126Z,5.57
2023-04-04T15:43:24.286Z,11.27
2023-04-04T15:45:47.289Z,6.70
2023-04-04T15:48:09.118Z,6.87
2023-04-04T15:50:30.836Z,5.47
2023-04-04T15:52:52.568Z,6.17
2023-04-04T15:55:17.112Z,5.17
2023-04-04T16:00:00.947Z,4.97
2023-04-04T16:02:29.292Z,6.47
2023-04-04T16:04:50.924Z,5.83
2023-04-04T16:07:12.596Z,4.17
2023-04-04T16:09:34.253Z,5.60
2023-04-04T16:11:57.007Z,6.23
2023-04-04T16:14:18.986Z,7.20
2023-04-04T16:16:41.337Z,5.93
2023-04-04T16:19:02.963Z,6.87
2023-04-04T16:21:24.654Z,5.17
2023-04-04T16:23:46.482Z,6.13
2023-04-04T16:26:09.393Z,5.83
2023-04-04T16:28:31.088Z,4.50
2023-04-04T16:30:53.108Z,6.30
2023-04-04T16:33:14.730Z,4.67
2023-04-04T16:35:38.412Z,5.83
2023-04-04T16:38:00.969Z,4.73
2023-04-04T16:40:23.462Z,5.20
2023-04-04T16:42:45.160Z,4.83
2023-04-04T16:45:08.487Z,4.70
2023-04-04T16:47:30.655Z,5.13
2023-04-04T16:49:52.428Z,5.10
2023-04-04T16:52:14.864Z,7.70
2023-04-04T16:54:39.874Z,5.53
2023-04-04T16:57:02.151Z,6.17
2023-04-04T16:59:23.915Z,5.23
2023-04-04T17:01:48.931Z,6.43
2023-04-04T17:04:10.927Z,5.97
2023-04-04T17:06:33.406Z,5.67
2023-04-04T17:08:55.119Z,5.27
2023-04-04T17:11:18.017Z,5.30
2023-04-04T17:13:39.762Z,5.50
2023-04-04T17:16:02.197Z,7.10
2023-04-04T17:18:23.924Z,6.20
2023-04-04T17:20:47.736Z,5.20
2023-04-04T17:23:10.691Z,5.35
2023-04-04T17:25:33.249Z,4.65
2023-04-04T17:27:55.736Z,6.43
2023-04-04T17:30:17.429Z,5.10
2023-04-04T17:32:39.161Z,4.90
2023-04-04T17:35:00.895Z,5.90
2023-04-04T17:37:22.883Z,6.17
2023-04-04T17:39:45.564Z,7.67
2023-04-04T17:42:07.984Z,6.83
2023-04-04T17:44:29.680Z,5.50
2023-04-04T17:46:51.880Z,7.57
2023-04-04T17:49:19.940Z,6.20
2023-04-04T17:51:42.895Z,7.27
2023-04-04T17:54:06.608Z,6.33
2023-04-04T17:56:28.839Z,6.30
2023-04-04T17:58:53.077Z,6.87
2023-04-04T18:01:15.296Z,5.97
2023-04-04T18:03:38.089Z,6.30
2023-04-04T18:06:00.384Z,7.17
2023-04-04T18:08:22.742Z,6.50
2023-04-04T18:10:44.436Z,6.20
2023-04-04T18:13:06.879Z,6.10
2023-04-04T18:15:29.550Z,6.77
2023-04-04T18:17:53.214Z,6.63
2023-04-04T18:20:24.423Z,7.10
2023-04-04T18:25:11.788Z,6.57
2023-04-04T18:27:34.297Z,5.87
2023-04-04T18:29:55.959Z,6.87
2023-04-04T18:32:18.334Z,5.57
2023-04-04T18:34:40.126Z,7.30
2023-04-04T18:37:01.929Z,8.37
2023-04-04T18:39:23.616Z,7.53
2023-04-04T18:41:46.390Z,8.33
2023-04-04T18:44:08.373Z,6.90
2023-04-04T18:46:30.071Z,7.10
2023-04-04T18:48:51.921Z,6.60
2023-04-04T18:51:14.800Z,9.37
2023-04-04T18:53:36.728Z,5.67
2023-04-04T18:55:58.920Z,7.60
2023-04-04T18:58:20.530Z,7.33
2023-04-04T19:00:42.647Z,6.60
2023-04-04T19:03:04.814Z,6.87
2023-04-04T19:05:32.026Z,8.30
2023-04-04T19:07:54.719Z,8.23
2023-04-04T19:10:17.715Z,8.10
2023-04-04T19:12:39.407Z,9.13
2023-04-04T19:15:01.381Z,7.00
2023-04-04T19:17:23.358Z,6.33
2023-04-04T19:19:46.738Z,8.33
2023-04-04T19:22:09.104Z,8.17
2023-04-04T19:24:31.055Z,6.60
2023-04-04T19:26:53.114Z,7.27
2023-04-04T19:29:21.788Z,6.47
2023-04-04T19:31:43.710Z,7.50
2023-04-04T19:34:08.344Z,8.43
2023-04-04T19:36:36.909Z,7.30
2023-04-04T19:38:58.622Z,8.03
2023-04-04T19:41:23.055Z,7.77
2023-04-04T19:46:12.790Z,7.27
2023-04-04T19:48:43.580Z,7.93
2023-04-04T19:51:31.991Z,6.60
2023-04-04T19:53:59.427Z,8.97
2023-04-04T19:56:24.809Z,10.03
2023-04-04T19:58:48.343Z,10.73
2023-04-04T20:01:14.877Z,10.63
2023-04-04T20:03:39.691Z,13.03
2023-04-04T20:06:13.197Z,13.27
2023-04-04T20:08:49.062Z,14.07
2023-04-04T20:11:12.893Z,13.07
2023-04-04T20:13:36.234Z,10.13
2023-04-04T20:16:02.120Z,12.67
2023-04-04T20:18:25.433Z,11.17
2023-04-04T20:21:12.403Z,11.80
2023-04-04T20:23:49.955Z,13.20
2023-04-04T20:26:16.413Z,9.53
2023-04-04T20:28:38.138Z,8.70
2023-04-04T20:31:10.224Z,12.73
2023-04-04T20:33:37.803Z,9.90
2023-04-04T20:36:21.918Z,10.90
2023-04-04T20:38:44.307Z,8.13
2023-04-04T20:41:16.083Z,10.87
2023-04-04T20:43:38.331Z,10.73
2023-04-04T20:46:00.416Z,12.13
2023-04-04T20:48:40.763Z,10.73
2023-04-04T20:51:02.966Z,11.90
2023-04-04T20:53:27.492Z,11.20
2023-04-04T20:58:31.324Z,10.13
2023-04-04T21:00:53.750Z,10.70
2023-04-04T21:03:31.884Z,13.50
2023-04-04T21:06:16.607Z,10.87
2023-04-04T21:08:42.222Z,9.80
2023-04-04T21:11:04.508Z,11.17
2023-04-04T21:13:42.313Z,12.33
2023-04-04T21:16:09.993Z,9.80
2023-04-04T21:18:32.931Z,10.13
2023-04-04T21:21:17.022Z,11.20
2023-04-04T21:23:59.573Z,8.63
2023-04-04T21:26:36.887Z,11.63
2023-04-04T21:29:05.316Z,8.30
2023-04-04T21:31:38.843Z,9.93
2023-04-04T21:34:19.725Z,7.77
2023-04-04T21:36:42.922Z,10.27
2023-04-04T21:39:12.971Z,12.43
2023-04-04T21:41:35.915Z,11.97
2023-04-04T21:44:00.840Z,9.47
2023-04-04T21:46:27.193Z,10.07
2023-04-04T21:48:49.836Z,11.00
2023-04-04T21:51:11.516Z,10.80
2023-04-04T21:53:33.235Z,9.70
2023-04-04T21:55:54.967Z,9.87
2023-04-04T21:58:16.614Z,7.80
2023-04-04T22:00:38.668Z,9.90
2023-04-04T22:03:00.700Z,11.33
2023-04-04T22:05:29.119Z,8.17
2023-04-04T22:07:58.014Z,8.83
2023-04-04T22:10:22.728Z,9.57
2023-04-04T22:12:46.979Z,9.30
2023-04-04T22:15:10.866Z,9.10
2023-04-04T22:17:32.748Z,9.60
2023-04-04T22:20:00.495Z,12.13
2023-04-04T22:22:22.208Z,9.13
2023-04-04T22:24:44.796Z,10.73
2023-04-04T22:27:07.321Z,10.57
2023-04-04T22:29:28.931Z,10.13
2023-04-04T22:31:50.712Z,10.67
2023-04-04T22:34:14.724Z,10.30
2023-04-04T22:36:39.519Z,13.27
2023-04-04T22:39:02.032Z,8.70
2023-04-04T22:41:28.985Z,9.30
2023-04-04T22:43:50.701Z,9.13
2023-04-04T22:46:12.473Z,10.63
2023-04-04T22:48:41.339Z,11.83
2023-04-04T22:51:03.352Z,9.57
2023-04-04T22:53:26.130Z,9.30
2023-04-04T22:55:48.339Z,8.53
2023-04-04T22:58:10.091Z,14.07
2023-04-04T23:00:32.052Z,9.13
2023-04-04T23:02:53.780Z,8.87
2023-04-04T23:05:17.771Z,12.60
2023-04-04T23:07:41.117Z,12.00
2023-04-04T23:10:05.397Z,12.30
2023-04-04T23:12:27.189Z,9.80
2023-04-04T23:14:49.959Z,12.57
2023-04-04T23:17:11.931Z,11.03
2023-04-04T23:19:33.595Z,11.10
2023-04-04T23:21:55.308Z,12.17
2023-04-04T23:24:16.998Z,11.33
2023-04-04T23:26:38.619Z,10.63
2023-04-04T23:29:01.266Z,11.90
2023-04-04T23:31:23.473Z,14.33
2023-04-04T23:33:45.175Z,10.97
2023-04-04T23:36:07.459Z,11.30
2023-04-04T23:38:29.197Z,10.47
2023-04-04T23:40:51.044Z,11.73
2023-04-04T23:43:12.738Z,12.57
2023-04-04T23:45:39.983Z,10.43
